LFMT Airport Information

Runway Information
Runway 12L Length 8530 ft width 164 ft
Elevation 17 ft Threshold 0 ft Heading 124
Runway 30R Length 8530 ft Width 164 ft
Elevation 6 ft Threshold 0 ft Heading 304
Runway 12R Length 3609 ft width 98 ft
Elevation 10 ft Threshold 328 ft Heading 124
Runway 30L Length 3609 ft Width 98 ft
Elevation 7 ft Threshold 0 ft Heading 304
Airport Frequencies
Type APP Name MONTPELLIE Frequency 120.375 MHZ
Type ATIS Name MONTPELLIE Frequency 124.125 MHZ
Type GND Name MONTPELLIE Frequency 121.95 MHZ
Type TWR Name MONTPELLIE Frequency 118.2 MHZ
Type TWR Name MONTPELLIE Frequency 118.775 MHZ
Airport Navaids
Type VOR-DME Name Mediterranee Frequency 114450 KHZ
Airport Weather Information & NOTAM
ADDS - METARS form results

(0805 UTC 15 December 2018)
Data provider http://aviationweather.gov/metar/data/
 
METAR text: LFMT 150800Z AUTO 34003KT 270V030 CAVOK M00/M03 Q1021 NOSIG
Conditions at: LFMT (FREJORGUES/MONTP, FR) observed 0800 UTC 15 December 2018
Temperature: 0.0°C (32°F)
Dewpoint: -3.0°C (27°F) [RH = 80%]
Pressure (altimeter): 30.15 inches Hg (1021.0 mb)
Winds: from the NNW (340 degrees) at 3 MPH (3 knots; 1.5 m/s)
Visibility: 6 or more miles (10+ km)
Ceiling: ceiling and visibility are OK
Clouds: unknown
Weather: no significant weather observed at this time

METAR text: LFMT 150730Z AUTO 03004KT CAVOK M02/M04 Q1021 NOSIG
Conditions at: LFMT (FREJORGUES/MONTP, FR) observed 0730 UTC 15 December 2018
Temperature: -2.0°C (28°F)
Dewpoint: -4.0°C (25°F) [RH = 86%]
Pressure (altimeter): 30.15 inches Hg (1021.0 mb)
Winds: from the NNE (30 degrees) at 5 MPH (4 knots; 2.1 m/s)
Visibility: 6 or more miles (10+ km)
Ceiling: ceiling and visibility are OK
Clouds: unknown
Weather: no significant weather observed at this time

Forecast for: LFMT (FREJORGUES/MONTP, FR)
Text: TAF LFMT 150200Z 1503/1603 32005KT CAVOK
Forecast period: 0300 UTC 15 December 2018 to 0300 UTC 16 December 2018
Forecast type: FROM: standard forecast or significant change
Winds: from the NW (320 degrees) at 6 MPH (5 knots; 2.6 m/s)
Visibility: 6 or more miles 10+ km)
Ceiling: unknown
Clouds: missing
Weather: NSW  (no significant weather)
Text: PROB30
Forecast period: 2100 UTC 15 December 2018 to 0300 UTC 16 December 2018
Forecast type: TEMPORARY: The following changes expected for less than half the time period
Visibility: missing
Ceiling: 1400 feet AGL
Clouds: broken clouds at 1400 feet AGL
Weather: no significant weather forecast for this period